Aérodrome :







RETROUVEZ-NOUS SUR...

 
LOGIN :

S'inscrire | Disclaimer

   EN    FR    IT 

 









Légende :    VFR   VFR Marginal   IFR   IFR Intensif   IFR Très Intensif
Visi : 
Plafond : 
>= 8 km
>= 3000ft
5 à 8 km
1000 à 3000 ft
1500m à 5 km
500 à 1000 ft
800 à 1500m
200 à 500 ft
< 800m
< 200 ft
Symboles :   Orages  Brouillard  Fortes neiges  Fortes précipitations  Vent > 20 kt






- Altitude de l'aérodrome : 38 ft
- Code IATA : TAB


TTCP - Crown Point Int.

DERNIER METAR :
  • 312100Z 10007KT 9999 FEW016 27/24 Q1010 NOSIG

METARs EXPIRÉS :
  • 312000Z 10006KT 9999 -RA FEW016 28/25 Q1010 NOSIG
  • 311900Z 10007KT 9999 FEW016 29/25 Q1009 NOSIG

TAF TAF TTCP
Valide du 31 à 18h jusqu'au 01 à 18h UTC


311600Z 3118/0118 13010KT 9999 SCT020
TEMPO 3118/0102 5000 SHRA FEW012CB BKN015
PROB40
TEMPO 3118/3122 VRB15G25KT 2000 TSRA FEW010CB BKN012
BECMG 3123/0101 09005KT FEW018
FIR TTZP / Amérique du Nord



MET'MAP, la Météo Aéronautique d'un coup d'oeil ! - Copyright ORBIFLY Décembre 2007 - Disclaimer

ORBIFLY MET'MAP TEAM :

Programmation & Développement : Alexandra Zaïnal
Sur une idée originale de : Baudouin d'Aumeries
Assistance à la programmation : Marc-Olivier Méhu
Soutien technique & logistique : Manuel Goepfert

Contact : metmap@orbifly.com




SOURCES & CREDITS :

   NOAA